createdAt,value
2023-03-12T00:01:45.890Z,5.73
2023-03-12T00:04:14.284Z,6.07
2023-03-12T00:06:41.794Z,6.07
2023-03-12T00:09:10.097Z,6.50
2023-03-12T00:11:37.989Z,6.17
2023-03-12T00:14:05.509Z,6.30
2023-03-12T00:16:33.818Z,6.20
2023-03-12T00:19:01.393Z,6.43
2023-03-12T00:21:28.932Z,6.30
2023-03-12T00:23:56.459Z,5.70
2023-03-12T00:26:24.819Z,5.47
2023-03-12T00:28:52.366Z,5.20
2023-03-12T00:31:19.929Z,4.57
2023-03-12T00:33:47.461Z,5.33
2023-03-12T00:36:14.988Z,4.57
2023-03-12T00:38:42.509Z,4.23
2023-03-12T00:41:10.083Z,4.67
2023-03-12T00:43:37.610Z,5.62
2023-03-12T00:46:05.158Z,4.20
2023-03-12T00:48:32.795Z,4.77
2023-03-12T00:51:00.339Z,4.80
2023-03-12T00:53:28.636Z,4.40
2023-03-12T00:55:56.185Z,4.80
2023-03-12T00:58:23.730Z,4.17
2023-03-12T01:00:51.322Z,4.13
2023-03-12T01:03:19.163Z,5.00
2023-03-12T01:05:46.702Z,4.60
2023-03-12T01:08:15.037Z,4.43
2023-03-12T01:10:42.588Z,4.13
2023-03-12T01:13:10.123Z,4.37
2023-03-12T01:15:37.674Z,4.67
2023-03-12T01:18:06.062Z,4.27
2023-03-12T01:20:33.540Z,4.37
2023-03-12T01:23:01.110Z,5.60
2023-03-12T01:25:28.689Z,4.40
2023-03-12T01:27:56.255Z,4.40
2023-03-12T01:30:23.763Z,4.97
2023-03-12T01:32:51.388Z,5.00
2023-03-12T01:35:18.920Z,4.40
2023-03-12T01:37:46.409Z,5.03
2023-03-12T01:40:20.477Z,4.67
2023-03-12T01:42:54.181Z,4.87
2023-03-12T01:45:52.512Z,4.70
2023-03-12T01:48:19.960Z,5.03
2023-03-12T01:50:48.284Z,5.40
2023-03-12T01:53:15.862Z,4.77
2023-03-12T01:55:43.403Z,4.60
2023-03-12T01:58:10.938Z,4.83
2023-03-12T02:00:38.508Z,4.77
2023-03-12T02:03:06.036Z,4.60
2023-03-12T02:05:49.344Z,4.80
2023-03-12T02:08:16.888Z,4.87
2023-03-12T02:10:44.426Z,4.23
2023-03-12T02:13:11.980Z,4.77
2023-03-12T02:15:39.522Z,4.73
2023-03-12T02:18:07.057Z,4.03
2023-03-12T02:20:56.504Z,4.40
2023-03-12T02:23:39.124Z,4.57
2023-03-12T02:26:06.698Z,4.57
2023-03-12T02:28:34.202Z,4.23
2023-03-12T02:31:01.751Z,6.10
2023-03-12T02:33:29.324Z,5.10
2023-03-12T02:35:56.904Z,4.67
2023-03-12T02:38:33.415Z,4.93
2023-03-12T02:41:01.711Z,4.97
2023-03-12T02:43:29.246Z,4.03
2023-03-12T02:45:56.874Z,4.70
2023-03-12T02:48:24.394Z,4.17
2023-03-12T02:50:51.910Z,3.60
2023-03-12T02:53:20.223Z,3.87
2023-03-12T02:55:47.758Z,5.10
2023-03-12T02:58:16.055Z,4.93
2023-03-12T03:00:43.944Z,4.90
2023-03-12T03:03:11.456Z,5.30
2023-03-12T03:05:39.769Z,4.90
2023-03-12T03:08:07.341Z,7.63
2023-03-12T03:10:34.879Z,6.20
2023-03-12T03:13:02.421Z,5.53
2023-03-12T03:15:30.880Z,5.93
2023-03-12T03:17:58.355Z,5.40
2023-03-12T03:20:26.654Z,4.90
2023-03-12T03:22:54.225Z,5.17
2023-03-12T03:25:21.753Z,4.80
2023-03-12T03:27:49.288Z,5.20
2023-03-12T03:30:16.880Z,6.13
2023-03-12T03:32:45.219Z,5.47
2023-03-12T03:35:12.698Z,4.97
2023-03-12T03:37:41.041Z,4.50
2023-03-12T03:40:08.778Z,4.63
2023-03-12T03:42:36.314Z,5.50
2023-03-12T03:45:03.878Z,5.17
2023-03-12T03:47:31.405Z,4.87
2023-03-12T03:49:59.704Z,3.90
2023-03-12T03:52:27.574Z,4.20
2023-03-12T03:54:55.869Z,4.27
2023-03-12T03:57:23.410Z,4.20
2023-03-12T03:59:50.955Z,4.67
2023-03-12T04:02:18.502Z,4.90
2023-03-12T04:04:46.019Z,4.73
2023-03-12T04:07:13.836Z,4.60
2023-03-12T04:09:42.139Z,4.30
2023-03-12T04:12:09.675Z,5.85
2023-03-12T04:14:37.984Z,5.17
2023-03-12T04:17:05.550Z,4.53
2023-03-12T04:19:33.068Z,5.10
2023-03-12T04:22:00.628Z,5.00
2023-03-12T04:24:28.163Z,6.10
2023-03-12T04:26:56.466Z,5.27
2023-03-12T04:29:24.861Z,4.40
2023-03-12T04:31:52.383Z,5.10
2023-03-12T04:34:20.676Z,4.07
2023-03-12T04:36:48.560Z,4.47
2023-03-12T04:39:18.796Z,4.87
2023-03-12T04:41:46.330Z,5.70
2023-03-12T04:44:13.888Z,4.63
2023-03-12T04:46:41.492Z,5.90
2023-03-12T04:49:08.955Z,5.27
2023-03-12T04:51:36.534Z,5.60
2023-03-12T04:54:04.059Z,6.30
2023-03-12T04:56:31.610Z,7.60
2023-03-12T04:58:59.176Z,6.33
2023-03-12T05:01:26.703Z,8.25
2023-03-12T05:03:54.282Z,6.87
2023-03-12T05:06:22.625Z,6.33
2023-03-12T05:08:50.129Z,6.40
2023-03-12T05:11:17.653Z,6.73
2023-03-12T05:13:45.961Z,6.23
2023-03-12T05:16:13.529Z,6.77
2023-03-12T05:18:41.023Z,6.13
2023-03-12T05:21:20.540Z,6.73
2023-03-12T05:23:48.073Z,5.63
2023-03-12T05:26:21.376Z,6.30
2023-03-12T05:28:48.920Z,6.93
2023-03-12T05:31:16.502Z,6.10
2023-03-12T05:33:44.745Z,6.93
2023-03-12T05:36:13.140Z,6.80
2023-03-12T05:38:40.668Z,7.27
2023-03-12T05:41:08.204Z,6.57
2023-03-12T05:43:35.759Z,7.00
2023-03-12T05:46:03.317Z,10.20
2023-03-12T05:48:30.846Z,7.97
2023-03-12T05:50:58.423Z,10.18
2023-03-12T05:53:25.953Z,9.03
2023-03-12T05:55:53.509Z,8.77
2023-03-12T05:58:21.069Z,7.90
2023-03-12T06:00:48.618Z,7.83
2023-03-12T06:03:16.193Z,7.70
2023-03-12T06:05:43.781Z,6.97
2023-03-12T06:08:11.332Z,7.10
2023-03-12T06:10:38.916Z,10.40
2023-03-12T06:13:06.460Z,8.03
2023-03-12T06:15:33.995Z,7.87
2023-03-12T06:18:01.520Z,9.85
2023-03-12T06:20:29.113Z,8.03
2023-03-12T06:22:56.650Z,7.97
2023-03-12T06:25:24.185Z,7.63
2023-03-12T06:27:52.533Z,7.03
2023-03-12T06:30:20.061Z,8.60
2023-03-12T06:32:47.619Z,8.50
2023-03-12T06:35:15.175Z,8.33
2023-03-12T06:37:42.685Z,8.03
2023-03-12T06:40:10.403Z,9.50
2023-03-12T06:42:37.973Z,8.90
2023-03-12T06:45:05.525Z,8.10
2023-03-12T06:47:33.062Z,10.10
2023-03-12T06:50:00.636Z,10.77
2023-03-12T06:52:28.178Z,8.03
2023-03-12T06:54:55.742Z,8.43
2023-03-12T06:57:23.327Z,8.03
2023-03-12T06:59:50.857Z,8.27
2023-03-12T07:02:18.440Z,8.43
2023-03-12T07:04:48.541Z,7.80
2023-03-12T07:07:16.805Z,8.70
2023-03-12T07:09:44.322Z,8.33
2023-03-12T07:12:12.763Z,9.23
2023-03-12T07:14:40.332Z,8.77
2023-03-12T07:17:07.883Z,9.77
2023-03-12T07:19:35.441Z,9.03
2023-03-12T07:22:02.981Z,9.20
2023-03-12T07:24:30.526Z,8.67
2023-03-12T07:26:58.871Z,9.83
2023-03-12T07:29:26.374Z,9.73
2023-03-12T07:31:53.918Z,11.10
2023-03-12T07:34:22.375Z,9.57
2023-03-12T07:36:49.936Z,9.63
2023-03-12T07:39:17.324Z,13.93
2023-03-12T07:41:44.923Z,12.33
2023-03-12T07:44:12.472Z,10.20
2023-03-12T07:46:40.077Z,12.50
2023-03-12T07:49:07.611Z,9.73
2023-03-12T07:51:35.116Z,9.83
2023-03-12T07:54:02.674Z,9.53
2023-03-12T07:56:39.039Z,8.63
2023-03-12T07:59:06.776Z,11.93
2023-03-12T08:01:34.074Z,10.83
2023-03-12T08:04:01.732Z,9.33
2023-03-12T08:06:29.133Z,9.63
2023-03-12T08:08:56.687Z,9.23
2023-03-12T08:11:24.251Z,12.98
2023-03-12T08:13:51.787Z,10.50
2023-03-12T08:16:19.386Z,9.10
2023-03-12T08:18:46.896Z,9.40
2023-03-12T08:21:16.364Z,10.40
2023-03-12T08:23:41.999Z,10.20
2023-03-12T08:26:09.609Z,10.00
2023-03-12T08:28:37.140Z,9.70
2023-03-12T08:31:04.663Z,12.70
2023-03-12T08:33:32.526Z,10.63
2023-03-12T08:36:00.867Z,10.73
2023-03-12T08:38:28.394Z,10.03
2023-03-12T08:40:55.951Z,11.20
2023-03-12T08:43:23.489Z,9.50
2023-03-12T08:45:53.779Z,10.23
2023-03-12T08:48:21.314Z,10.00
2023-03-12T08:50:48.862Z,10.40
2023-03-12T08:53:16.404Z,9.33
2023-03-12T08:55:43.978Z,10.83
2023-03-12T08:58:11.507Z,10.70
2023-03-12T09:00:39.048Z,9.93
2023-03-12T09:03:07.463Z,9.87
2023-03-12T09:05:35.000Z,10.00
2023-03-12T09:08:02.538Z,9.43
2023-03-12T09:10:31.326Z,10.13
2023-03-12T09:12:58.433Z,10.80
2023-03-12T09:15:25.964Z,12.10
2023-03-12T09:17:53.535Z,10.43
2023-03-12T09:20:21.104Z,10.03
2023-03-12T09:22:48.625Z,10.27
2023-03-12T09:25:16.214Z,9.20
2023-03-12T09:27:43.742Z,10.17
2023-03-12T09:30:12.139Z,9.50
2023-03-12T09:32:39.763Z,9.73
2023-03-12T09:35:07.316Z,9.30
2023-03-12T09:37:34.846Z,10.03
2023-03-12T09:40:02.420Z,12.65
2023-03-12T09:42:47.351Z,10.40
2023-03-12T09:45:21.819Z,9.40
2023-03-12T09:47:55.032Z,10.37
2023-03-12T09:50:25.170Z,11.03
2023-03-12T09:53:01.633Z,9.50
2023-03-12T09:55:29.166Z,13.18
2023-03-12T09:57:57.479Z,11.33
2023-03-12T10:00:25.129Z,11.43
2023-03-12T10:02:55.284Z,11.23
2023-03-12T10:05:52.972Z,11.23
2023-03-12T10:08:24.525Z,10.07
2023-03-12T10:10:56.924Z,11.95
2023-03-12T10:13:46.506Z,9.73
2023-03-12T10:16:16.612Z,8.30
2023-03-12T10:18:55.858Z,8.20
2023-03-12T10:21:27.040Z,7.17
2023-03-12T10:24:00.506Z,8.40
2023-03-12T10:26:44.779Z,7.47
2023-03-12T10:29:17.781Z,6.70
2023-03-12T10:31:53.803Z,5.00
2023-03-12T10:34:40.374Z,4.87
2023-03-12T10:37:23.003Z,5.43
2023-03-12T10:39:50.529Z,5.00
2023-03-12T10:42:18.070Z,6.03
2023-03-12T10:44:48.366Z,6.72
2023-03-12T10:47:30.937Z,5.00
2023-03-12T10:50:14.068Z,5.40
2023-03-12T10:52:41.624Z,4.77
2023-03-12T10:55:12.118Z,5.00
2023-03-12T10:57:42.717Z,5.53
2023-03-12T11:00:10.439Z,5.97
2023-03-12T11:02:40.671Z,4.53
2023-03-12T11:05:23.517Z,6.10
2023-03-12T11:07:51.416Z,5.40
2023-03-12T11:10:25.112Z,4.93
2023-03-12T11:12:55.650Z,3.93
2023-03-12T11:15:23.181Z,4.60
2023-03-12T11:17:50.712Z,5.40
2023-03-12T11:20:22.401Z,3.37
2023-03-12T11:22:51.549Z,4.30
2023-03-12T11:25:17.526Z,4.47
2023-03-12T11:27:45.104Z,4.03
2023-03-12T11:30:12.831Z,4.10
2023-03-12T11:32:43.006Z,4.65
2023-03-12T11:35:13.298Z,4.07
2023-03-12T11:37:52.514Z,3.87
2023-03-12T11:40:28.855Z,3.73
2023-03-12T11:43:12.083Z,3.87
2023-03-12T11:45:40.435Z,3.43
2023-03-12T11:48:16.707Z,4.60
2023-03-12T11:50:47.110Z,4.77
2023-03-12T11:53:17.573Z,3.77
2023-03-12T11:55:48.607Z,3.70
2023-03-12T11:58:34.651Z,4.10
2023-03-12T12:01:02.196Z,3.43
2023-03-12T12:03:35.152Z,4.07
2023-03-12T12:06:23.825Z,3.03
2023-03-12T12:08:54.046Z,4.47
2023-03-12T12:11:46.039Z,4.27
2023-03-12T12:14:50.489Z,3.97
2023-03-12T12:17:21.523Z,4.57
2023-03-12T12:20:01.620Z,3.33
2023-03-12T12:22:37.929Z,4.20
2023-03-12T12:25:30.577Z,3.43
2023-03-12T12:28:16.468Z,3.57
2023-03-12T12:31:14.227Z,3.10
2023-03-12T12:33:50.595Z,3.00
2023-03-12T12:36:18.182Z,2.10
2023-03-12T12:38:48.362Z,3.37
2023-03-12T12:41:18.648Z,3.42
2023-03-12T12:43:51.841Z,3.30
2023-03-12T12:46:19.460Z,3.10
2023-03-12T12:48:55.539Z,4.00
2023-03-12T12:51:26.780Z,2.77
2023-03-12T12:54:09.395Z,3.53
2023-03-12T12:57:01.398Z,3.40
2023-03-12T12:59:41.602Z,4.47
2023-03-12T13:02:16.117Z,3.40
2023-03-12T13:04:43.857Z,3.20
2023-03-12T13:07:21.537Z,3.30
2023-03-12T13:09:51.884Z,2.93
2023-03-12T13:12:43.940Z,3.20
2023-03-12T13:15:29.599Z,3.30
2023-03-12T13:18:00.591Z,3.93
2023-03-12T13:20:46.051Z,3.70
2023-03-12T13:23:43.756Z,4.50
2023-03-12T13:26:30.067Z,3.00
2023-03-12T13:29:11.966Z,4.20
2023-03-12T13:31:29.891Z,3.70
2023-03-12T13:33:57.331Z,3.13
2023-03-12T13:36:25.076Z,3.70
2023-03-12T13:38:58.540Z,3.87
2023-03-12T13:41:50.909Z,3.50
2023-03-12T13:44:23.819Z,3.23
2023-03-12T13:47:21.645Z,3.23
2023-03-12T13:50:03.967Z,3.33
2023-03-12T13:52:40.638Z,3.70
2023-03-12T13:55:13.874Z,3.30
2023-03-12T13:57:50.465Z,3.70
2023-03-12T14:00:36.643Z,4.20
2023-03-12T14:03:05.006Z,4.60
2023-03-12T14:05:35.437Z,3.50
2023-03-12T14:08:11.712Z,4.30
2023-03-12T14:11:05.408Z,3.53
2023-03-12T14:13:36.802Z,3.20
2023-03-12T14:16:09.948Z,2.67
2023-03-12T14:18:37.434Z,3.80
2023-03-12T14:21:05.020Z,2.93
2023-03-12T14:23:35.366Z,3.43
2023-03-12T14:26:04.353Z,3.50
2023-03-12T14:28:31.559Z,3.23
2023-03-12T14:31:13.788Z,2.90
2023-03-12T14:33:47.176Z,3.00
2023-03-12T14:36:14.723Z,2.80
2023-03-12T14:38:42.255Z,3.33
2023-03-12T14:41:19.209Z,3.17
2023-03-12T14:43:47.517Z,3.60
2023-03-12T14:46:17.789Z,3.17
2023-03-12T14:48:45.323Z,3.07
2023-03-12T14:51:21.568Z,4.17
2023-03-12T14:53:47.087Z,3.37
2023-03-12T14:56:14.660Z,3.93
2023-03-12T14:58:45.104Z,3.37
2023-03-12T15:01:12.631Z,3.30
2023-03-12T15:03:43.463Z,3.10
2023-03-12T15:06:13.743Z,3.33
2023-03-12T15:08:42.036Z,2.97
2023-03-12T15:11:09.645Z,3.40
2023-03-12T15:13:37.167Z,2.90
2023-03-12T15:16:04.778Z,4.00
2023-03-12T15:18:33.066Z,3.23
2023-03-12T15:21:00.597Z,2.63
2023-03-12T15:23:28.164Z,2.87
2023-03-12T15:26:17.353Z,3.83
2023-03-12T15:28:44.890Z,3.07
2023-03-12T15:31:15.221Z,2.80
2023-03-12T15:33:43.522Z,2.90
2023-03-12T15:36:19.965Z,2.80
2023-03-12T15:38:50.321Z,3.25
2023-03-12T15:41:23.986Z,3.50
2023-03-12T15:43:57.298Z,2.63
2023-03-12T15:46:24.903Z,3.17
2023-03-12T15:48:52.353Z,2.63
2023-03-12T15:51:31.643Z,2.53
2023-03-12T15:53:59.187Z,3.07
2023-03-12T15:56:26.724Z,3.60
2023-03-12T15:59:03.915Z,3.00
2023-03-12T16:01:31.502Z,2.40
2023-03-12T16:03:58.999Z,3.30
2023-03-12T16:06:27.352Z,2.53
2023-03-12T16:08:58.589Z,3.43
2023-03-12T16:11:28.828Z,3.17
2023-03-12T16:14:05.955Z,3.27
2023-03-12T16:16:33.559Z,4.18
2023-03-12T16:19:01.138Z,3.23
2023-03-12T16:21:28.652Z,3.23
2023-03-12T16:23:57.018Z,3.53
2023-03-12T16:26:24.470Z,2.60
2023-03-12T16:28:52.058Z,3.27
2023-03-12T16:31:19.651Z,3.53
2023-03-12T16:33:47.161Z,3.10
2023-03-12T16:36:14.760Z,2.90
2023-03-12T16:38:42.290Z,3.13
2023-03-12T16:41:18.397Z,3.53
2023-03-12T16:43:46.780Z,3.83
2023-03-12T16:46:17.167Z,3.40
2023-03-12T16:48:44.677Z,3.57
2023-03-12T16:51:15.113Z,3.53
2023-03-12T16:53:43.383Z,3.10
2023-03-12T16:56:11.006Z,5.10
2023-03-12T16:58:39.367Z,3.90
2023-03-12T17:01:06.952Z,3.20
2023-03-12T17:03:38.168Z,3.90
2023-03-12T17:06:04.775Z,4.28
2023-03-12T17:08:32.329Z,4.13
2023-03-12T17:10:59.877Z,4.03
2023-03-12T17:13:28.223Z,3.77
2023-03-12T17:15:58.783Z,3.53
2023-03-12T17:18:26.573Z,3.07
2023-03-12T17:20:54.496Z,3.20
2023-03-12T17:23:22.997Z,4.43
2023-03-12T17:25:50.541Z,4.33
2023-03-12T17:28:19.755Z,3.37
2023-03-12T17:30:50.600Z,2.50
2023-03-12T17:33:18.882Z,3.37
2023-03-12T17:35:46.489Z,3.37
2023-03-12T17:38:14.040Z,2.47
2023-03-12T17:40:41.546Z,3.83
2023-03-12T17:43:09.126Z,4.03
2023-03-12T17:45:39.128Z,3.50
2023-03-12T17:48:06.681Z,5.30
2023-03-12T17:50:34.256Z,3.97
2023-03-12T17:53:01.884Z,3.63
2023-03-12T17:55:30.210Z,3.10
2023-03-12T17:57:57.797Z,3.90
2023-03-12T18:00:26.116Z,4.65
2023-03-12T18:02:53.691Z,5.67
2023-03-12T18:05:22.000Z,3.70
2023-03-12T18:07:49.529Z,3.80
2023-03-12T18:10:17.088Z,3.83
2023-03-12T18:12:44.682Z,4.47
2023-03-12T18:15:12.215Z,3.13
2023-03-12T18:17:39.856Z,3.40
2023-03-12T18:20:07.492Z,3.13
2023-03-12T18:22:35.014Z,3.27
2023-03-12T18:25:02.550Z,4.13
2023-03-12T18:27:30.133Z,3.13
2023-03-12T18:29:57.673Z,3.23
2023-03-12T18:32:25.272Z,4.43
2023-03-12T18:34:52.808Z,4.45
2023-03-12T18:37:20.356Z,4.22
2023-03-12T18:39:47.888Z,4.00
2023-03-12T18:42:15.480Z,4.30
2023-03-12T18:44:43.004Z,3.77
2023-03-12T18:47:10.576Z,3.80
2023-03-12T18:49:38.183Z,3.13
2023-03-12T18:52:05.705Z,3.43
2023-03-12T18:54:33.261Z,3.53
2023-03-12T18:57:00.832Z,3.17
2023-03-12T18:59:29.524Z,5.53
2023-03-12T19:01:55.957Z,6.10
2023-03-12T19:04:23.521Z,4.20
2023-03-12T19:06:51.992Z,3.00
2023-03-12T19:09:19.346Z,3.70
2023-03-12T19:11:46.818Z,4.00
2023-03-12T19:14:14.370Z,3.73
2023-03-12T19:16:41.884Z,4.43
2023-03-12T19:19:09.766Z,3.67
2023-03-12T19:21:37.305Z,3.40
2023-03-12T19:24:04.857Z,5.72
2023-03-12T19:26:32.447Z,4.10
2023-03-12T19:29:00.000Z,3.70
2023-03-12T19:31:27.581Z,3.20
2023-03-12T19:33:55.172Z,3.83
2023-03-12T19:36:22.711Z,3.23
2023-03-12T19:38:50.231Z,3.60
2023-03-12T19:41:17.827Z,6.57
2023-03-12T19:43:45.376Z,5.03
2023-03-12T19:46:12.957Z,3.43
2023-03-12T19:48:40.495Z,3.33
2023-03-12T19:51:08.031Z,3.80
2023-03-12T19:53:35.558Z,4.13
2023-03-12T19:56:03.653Z,4.53
2023-03-12T19:58:31.179Z,3.97
2023-03-12T20:00:59.511Z,5.00
2023-03-12T20:03:27.137Z,4.23
2023-03-12T20:05:54.652Z,3.57
2023-03-12T20:08:22.193Z,3.43
2023-03-12T20:10:50.050Z,5.30
2023-03-12T20:13:20.383Z,4.57
2023-03-12T20:15:47.911Z,6.00
2023-03-12T20:18:15.581Z,4.23
2023-03-12T20:20:43.152Z,7.03
2023-03-12T20:23:10.681Z,9.18
2023-03-12T20:25:42.037Z,5.17
2023-03-12T20:28:09.856Z,3.97
2023-03-12T20:30:37.416Z,3.90
2023-03-12T20:33:04.955Z,3.33
2023-03-12T20:35:32.514Z,3.90
2023-03-12T20:38:00.023Z,4.25
2023-03-12T20:40:27.599Z,4.22
2023-03-12T20:42:55.139Z,3.03
2023-03-12T20:45:22.747Z,3.80
2023-03-12T20:47:50.302Z,3.23
2023-03-12T20:50:17.892Z,3.43
2023-03-12T20:52:45.392Z,3.97
2023-03-12T20:55:13.234Z,3.83
2023-03-12T20:57:41.599Z,3.50
2023-03-12T21:00:10.209Z,3.20
2023-03-12T21:02:37.818Z,3.63
2023-03-12T21:05:05.344Z,5.17
2023-03-12T21:07:32.889Z,3.87
2023-03-12T21:10:01.592Z,3.40
2023-03-12T21:12:29.155Z,3.67
2023-03-12T21:14:57.449Z,3.70
2023-03-12T21:17:25.383Z,3.97
2023-03-12T21:19:52.929Z,3.30
2023-03-12T21:22:21.237Z,3.87
2023-03-12T21:24:49.122Z,3.93
2023-03-12T21:27:16.658Z,3.73
2023-03-12T21:29:44.187Z,4.20
2023-03-12T21:32:12.899Z,3.73
2023-03-12T21:34:40.422Z,3.90
2023-03-12T21:37:08.742Z,3.30
2023-03-12T21:39:36.325Z,3.90
2023-03-12T21:42:03.869Z,4.50
2023-03-12T21:44:31.410Z,5.62
2023-03-12T21:46:58.974Z,5.00
2023-03-12T21:49:26.571Z,4.87
2023-03-12T21:51:54.053Z,4.77
2023-03-12T21:54:22.395Z,4.77
2023-03-12T21:56:49.930Z,5.90
2023-03-12T21:59:17.461Z,3.97
2023-03-12T22:01:46.643Z,4.67
2023-03-12T22:04:14.168Z,4.17
2023-03-12T22:06:42.414Z,5.67
2023-03-12T22:09:09.986Z,5.13
2023-03-12T22:11:37.513Z,4.80
2023-03-12T22:14:05.049Z,3.57
2023-03-12T22:16:33.573Z,3.90
2023-03-12T22:19:00.998Z,4.67
2023-03-12T22:21:29.286Z,5.60
2023-03-12T22:23:56.868Z,5.47
2023-03-12T22:26:24.410Z,6.05
2023-03-12T22:28:51.936Z,5.60
2023-03-12T22:31:19.821Z,5.00
2023-03-12T22:33:47.282Z,3.80
2023-03-12T22:36:14.862Z,3.67
2023-03-12T22:38:42.410Z,4.63
2023-03-12T22:41:12.894Z,5.27
2023-03-12T22:43:40.432Z,3.23
2023-03-12T22:46:08.012Z,3.30
2023-03-12T22:48:35.534Z,2.83
2023-03-12T22:51:03.085Z,3.13
2023-03-12T22:53:30.646Z,2.97
2023-03-12T22:56:00.700Z,3.43
2023-03-12T22:58:28.248Z,3.60
2023-03-12T23:01:08.315Z,4.15
2023-03-12T23:03:35.845Z,4.67
2023-03-12T23:06:04.212Z,3.70
2023-03-12T23:08:31.703Z,3.10
2023-03-12T23:10:59.254Z,2.83
2023-03-12T23:13:26.778Z,3.45
2023-03-12T23:15:54.394Z,3.53
2023-03-12T23:18:21.900Z,3.10
2023-03-12T23:20:49.449Z,3.10
2023-03-12T23:23:17.340Z,3.03
2023-03-12T23:25:44.857Z,3.50
2023-03-12T23:28:12.419Z,2.77
2023-03-12T23:30:40.314Z,2.70
2023-03-12T23:33:07.868Z,3.00
2023-03-12T23:35:35.485Z,3.23
2023-03-12T23:38:03.015Z,3.10
2023-03-12T23:40:30.564Z,3.03
2023-03-12T23:42:58.073Z,2.40
2023-03-12T23:45:26.648Z,2.77
2023-03-12T23:47:54.114Z,2.50
2023-03-12T23:50:22.422Z,3.10
2023-03-12T23:52:50.004Z,2.97
2023-03-12T23:55:17.555Z,2.10
2023-03-12T23:57:45.055Z,2.97
